Ingersoll, Canada
Current Conditions -  °F | °C
As of 3:17 AM on Saturday 29 Nov 2014 (Local Time) from CYXU Reporting Station
Overcast Overcast  
Wind Chill: 15°   Ceiling: 600
Heat Index: 23°   Visibility: 15mi
Dew Point: 21°   Wind: 7mph
Humidity: 93%   Direction: 110°ESE
Pressure: 30.08"   Gusts: NA
Location:  43.04°N, 80.88°W
Report Text: CYXU 290817Z 11006KT 15SM OVC006 M05/M06 A3008 RMK SF8 SLP203
Loading
Personal Weather Stations






























Interactive Weather Map New forecast layout! Learn more

10-Day Weather Forecast

Advertisements
Track Severe Weather on mobile